KATL/ATL METAR and TAF weather

Enter ICAO airport designator
Station Type Date Time Source
KATL METAR 2019/08/17 10:52 UTC NOAA

KATL 171052Z 00000KT 10SM CLR 23/18 A2998 RMK AO2 SLP141 T02330178 $


Station Type Date Time Source
KATL Decoded METAR 2019/08/17 10:52 UTC NOAA

Station name not available
Aug 17, 2019 - 06:52 AM EDT / 2019.08.17 1052 UTC
Wind: Calm:0
Visibility: 10 mile(s):0
Sky conditions: clear
Temperature: 73.9 F (23.3 C)
Dew Point: 64.0 F (17.8 C)
Relative Humidity: 71%
Pressure (altimeter): 29.98 in. Hg (1015 hPa)
ob: KATL 171052Z 00000KT 10SM CLR 23/18 A2998 RMK AO2 SLP141 T02330178
cycle: 11

Station Type Date Time Source
KATL TAF 2019/08/17 10:34 UTC NOAA

TAF
AMD KATL 170931Z 1710/1812 31003KT P6SM SKC
FM171700 33006KT P6SM SCT060
FM180000 10004KT P6SM FEW070
FM180500 21004KT P6SM FEW250

Example: see airport list